Pagina principale
METAR-TAF:

METAR-TAF

Aeroporti :

Luxor, Egitto

latitudine: 25-40N, longitudine: 032-42E, altezza: 93 m

Osservazione

Il bollettino è stato emesso 52 minuti fa, alle 12:00 UTC
Vento 2 kt da ovest/sud-ovest
Temperature 40°C
Umidità 22%
Pressione 1011 hPa
Visibilità 10 km o più
nessuna nube inferiore a 1500 m e nessun cumulonembo

METAR: HELX 171200Z 24002KT CAVOK 40/14 Q1011 NOSIG

Ora: 14:52 (12:52 UTC)

Previsione

Il bollettino è stato emesso 1 ora e 52 minuti fa, alle 11:00 UTC
Previsione valida dal 17 alle 12 UTC al 18 alle 18 UTC
Vento 7 kt da nord/nord-ovest
Visibilità 10 km o più
nessuna nube inferiore a 1500 m e nessun cumulonembo

TAF: HELX 171100Z 1712/1818 34007KT CAVOK

Osservazioni e previsioni meteorologiche di più di 4000 aeroporti (messaggi METAR e TAF).

Le stazioni disponibili sono rappresentate dai dischi gialli e rossi sulla carta.

Puntare il mouse per vedere il nome della stazione.

Clicca sopra per visualizzare le osservazioni e previsioni meteorologiche.

Per cambiare la mappa : fare clic sui pulsanti verdi con una croce nera per ingrandire, il pulsante verde con un trattino per diminuire, o sulla freccia verde per le mappe adiacenti.


METAR-TAF: